sensor_id;sensor_type;location;lat;lon;timestamp;pressure;altitude;pressure_sealevel;temperature
64600;BMP280;6553;48.412;9.514;2023-06-10T00:01:57;71989.22;;;22.93
64600;BMP280;6553;48.412;9.514;2023-06-10T00:04:23;71989.22;;;22.93
64600;BMP280;6553;48.412;9.514;2023-06-10T00:06:49;71995.81;;;22.94
64600;BMP280;6553;48.412;9.514;2023-06-10T00:09:15;71990.25;;;22.94
64600;BMP280;6553;48.412;9.514;2023-06-10T00:11:41;71994.22;;;22.92
64600;BMP280;6553;48.412;9.514;2023-06-10T00:14:07;71983.63;;;22.93
64600;BMP280;6553;48.412;9.514;2023-06-10T00:16:34;71993.56;;;22.94
64600;BMP280;6553;48.412;9.514;2023-06-10T00:19:03;71994.09;;;22.95
64600;BMP280;6553;48.412;9.514;2023-06-10T00:21:31;71991.44;;;22.92
64600;BMP280;6553;48.412;9.514;2023-06-10T00:24:09;71993.69;;;22.92
64600;BMP280;6553;48.412;9.514;2023-06-10T00:26:40;71992.00;;;22.93
64600;BMP280;6553;48.412;9.514;2023-06-10T00:29:07;71994.78;;;22.93
64600;BMP280;6553;48.412;9.514;2023-06-10T00:31:37;71992.00;;;22.93
64600;BMP280;6553;48.412;9.514;2023-06-10T00:34:07;71992.00;;;22.93
64600;BMP280;6553;48.412;9.514;2023-06-10T00:36:33;71998.72;;;22.91
64600;BMP280;6553;48.412;9.514;2023-06-10T00:38:59;71990.91;;;22.92
64600;BMP280;6553;48.412;9.514;2023-06-10T00:41:25;71993.69;;;22.92
64600;BMP280;6553;48.412;9.514;2023-06-10T00:43:54;71991.44;;;22.92
64600;BMP280;6553;48.412;9.514;2023-06-10T00:46:21;71997.56;;;22.93
64600;BMP280;6553;48.412;9.514;2023-06-10T00:48:49;71988.13;;;22.92
64600;BMP280;6553;48.412;9.514;2023-06-10T00:51:16;71983.75;;;22.90
64600;BMP280;6553;48.412;9.514;2023-06-10T00:53:42;71993.69;;;22.92
64600;BMP280;6553;48.412;9.514;2023-06-10T00:56:09;71993.16;;;22.91
64600;BMP280;6553;48.412;9.514;2023-06-10T00:58:36;71992.63;;;22.91
64600;BMP280;6553;48.412;9.514;2023-06-10T01:01:03;71984.28;;;22.91
64600;BMP280;6553;48.412;9.514;2023-06-10T01:03:29;71998.72;;;22.91
64600;BMP280;6553;48.412;9.514;2023-06-10T01:06:12;71989.31;;;22.90
64600;BMP280;6553;48.412;9.514;2023-06-10T01:11:29;71989.84;;;22.91
64600;BMP280;6553;48.412;9.514;2023-06-10T01:14:00;71987.72;;;22.89
64600;BMP280;6553;48.412;9.514;2023-06-10T01:16:26;71987.19;;;22.88
64600;BMP280;6553;48.412;9.514;2023-06-10T01:18:53;71988.28;;;22.89
64600;BMP280;6553;48.412;9.514;2023-06-10T01:21:23;71987.72;;;22.89
64600;BMP280;6553;48.412;9.514;2023-06-10T01:23:52;71990.50;;;22.89
64600;BMP280;6553;48.412;9.514;2023-06-10T01:26:22;71989.97;;;22.88
64600;BMP280;6553;48.412;9.514;2023-06-10T01:29:07;71991.16;;;22.87
64600;BMP280;6553;48.412;9.514;2023-06-10T01:31:49;71981.63;;;22.88
64600;BMP280;6553;48.412;9.514;2023-06-10T01:34:18;71985.06;;;22.86
64600;BMP280;6553;48.412;9.514;2023-06-10T01:36:48;71989.44;;;22.88
64600;BMP280;6553;48.412;9.514;2023-06-10T01:39:17;71977.22;;;22.87
64600;BMP280;6553;48.412;9.514;2023-06-10T01:41:44;71985.59;;;22.87
64600;BMP280;6553;48.412;9.514;2023-06-10T01:44:10;71986.66;;;22.88
64600;BMP280;6553;48.412;9.514;2023-06-10T01:46:39;71980.56;;;22.87
64600;BMP280;6553;48.412;9.514;2023-06-10T01:49:04;71983.88;;;22.88
64600;BMP280;6553;48.412;9.514;2023-06-10T01:51:30;71985.06;;;22.86
64600;BMP280;6553;48.412;9.514;2023-06-10T01:53:57;71985.59;;;22.87
64600;BMP280;6553;48.412;9.514;2023-06-10T01:56:22;71985.59;;;22.87
64600;BMP280;6553;48.412;9.514;2023-06-10T01:58:48;71982.81;;;22.87
64600;BMP280;6553;48.412;9.514;2023-06-10T02:01:14;71987.84;;;22.86
64600;BMP280;6553;48.412;9.514;2023-06-10T02:03:40;71981.75;;;22.86
64600;BMP280;6553;48.412;9.514;2023-06-10T02:06:06;71986.78;;;22.85
64600;BMP280;6553;48.412;9.514;2023-06-10T02:08:32;71984.56;;;22.86
64600;BMP280;6553;48.412;9.514;2023-06-10T02:10:59;71981.75;;;22.86
64600;BMP280;6553;48.412;9.514;2023-06-10T02:13:27;71987.34;;;22.86
64600;BMP280;6553;48.412;9.514;2023-06-10T02:15:53;71980.69;;;22.85
64600;BMP280;6553;48.412;9.514;2023-06-10T02:18:20;71986.25;;;22.85
64600;BMP280;6553;48.412;9.514;2023-06-10T02:20:46;71986.25;;;22.85
64600;BMP280;6553;48.412;9.514;2023-06-10T02:23:12;71982.28;;;22.86
64600;BMP280;6553;48.412;9.514;2023-06-10T02:25:38;71984.00;;;22.85
64600;BMP280;6553;48.412;9.514;2023-06-10T02:28:04;71983.47;;;22.85
64600;BMP280;6553;48.412;9.514;2023-06-10T02:30:29;71987.97;;;22.84
64600;BMP280;6553;48.412;9.514;2023-06-10T02:32:55;71979.63;;;22.84
64600;BMP280;6553;48.412;9.514;2023-06-10T02:35:23;71978.03;;;22.82
64600;BMP280;6553;48.412;9.514;2023-06-10T02:37:50;71982.41;;;22.84
64600;BMP280;6553;48.412;9.514;2023-06-10T02:40:18;71981.31;;;22.83
64600;BMP280;6553;48.412;9.514;2023-06-10T02:42:44;71984.66;;;22.83
64600;BMP280;6553;48.412;9.514;2023-06-10T02:45:10;71987.97;;;22.84
64600;BMP280;6553;48.412;9.514;2023-06-10T02:47:41;71982.41;;;22.84
64600;BMP280;6553;48.412;9.514;2023-06-10T02:50:09;71981.31;;;22.83
64600;BMP280;6553;48.412;9.514;2023-06-10T02:52:41;71979.09;;;22.83
64600;BMP280;6553;48.412;9.514;2023-06-10T02:55:08;71981.31;;;22.83
64600;BMP280;6553;48.412;9.514;2023-06-10T02:57:34;71980.84;;;22.82
64600;BMP280;6553;48.412;9.514;2023-06-10T03:00:02;71975.75;;;22.83
64600;BMP280;6553;48.412;9.514;2023-06-10T03:02:31;71984.09;;;22.83
64600;BMP280;6553;48.412;9.514;2023-06-10T03:04:57;71979.09;;;22.83
64600;BMP280;6553;48.412;9.514;2023-06-10T03:07:23;71982.53;;;22.81
64600;BMP280;6553;48.412;9.514;2023-06-10T03:09:52;71979.75;;;22.81
64600;BMP280;6553;48.412;9.514;2023-06-10T03:12:18;71980.28;;;22.82
64600;BMP280;6553;48.412;9.514;2023-06-10T03:14:47;71979.22;;;22.81
64600;BMP280;6553;48.412;9.514;2023-06-10T03:17:13;71980.28;;;22.82
64600;BMP280;6553;48.412;9.514;2023-06-10T03:19:41;71976.44;;;22.81
64600;BMP280;6553;48.412;9.514;2023-06-10T03:22:15;71979.75;;;22.81
64600;BMP280;6553;48.412;9.514;2023-06-10T03:24:52;71978.16;;;22.80
64600;BMP280;6553;48.412;9.514;2023-06-10T03:27:19;71975.91;;;22.80
64600;BMP280;6553;48.412;9.514;2023-06-10T03:29:48;71978.69;;;22.80
64600;BMP280;6553;48.412;9.514;2023-06-10T03:32:15;71976.97;;;22.81
64600;BMP280;6553;48.412;9.514;2023-06-10T03:34:41;71980.94;;;22.80
64600;BMP280;6553;48.412;9.514;2023-06-10T03:37:08;71982.00;;;22.81
64600;BMP280;6553;48.412;9.514;2023-06-10T03:39:35;71981.47;;;22.80
64600;BMP280;6553;48.412;9.514;2023-06-10T03:42:01;71979.91;;;22.79
64600;BMP280;6553;48.412;9.514;2023-06-10T03:44:29;71977.59;;;22.79
64600;BMP280;6553;48.412;9.514;2023-06-10T03:46:55;71978.16;;;22.80
64600;BMP280;6553;48.412;9.514;2023-06-10T03:49:21;71984.94;;;22.78
64600;BMP280;6553;48.412;9.514;2023-06-10T03:51:53;71973.78;;;22.78
64600;BMP280;6553;48.412;9.514;2023-06-10T03:54:21;71973.25;;;22.78
64600;BMP280;6553;48.412;9.514;2023-06-10T03:56:46;71976.03;;;22.78
64600;BMP280;6553;48.412;9.514;2023-06-10T03:59:14;71976.03;;;22.78
64600;BMP280;6553;48.412;9.514;2023-06-10T04:01:39;71972.19;;;22.77
64600;BMP280;6553;48.412;9.514;2023-06-10T04:04:07;71977.13;;;22.79
64600;BMP280;6553;48.412;9.514;2023-06-10T04:06:34;71974.34;;;22.79
64600;BMP280;6553;48.412;9.514;2023-06-10T04:08:59;71973.25;;;22.78
64600;BMP280;6553;48.412;9.514;2023-06-10T04:11:27;71974.97;;;22.77
64600;BMP280;6553;48.412;9.514;2023-06-10T04:13:55;71976.03;;;22.78
64600;BMP280;6553;48.412;9.514;2023-06-10T04:16:21;71974.97;;;22.77
64600;BMP280;6553;48.412;9.514;2023-06-10T04:18:48;71975.50;;;22.77
64600;BMP280;6553;48.412;9.514;2023-06-10T04:21:16;71969.41;;;22.77
64600;BMP280;6553;48.412;9.514;2023-06-10T04:23:42;71978.81;;;22.78
64600;BMP280;6553;48.412;9.514;2023-06-10T04:26:09;71977.59;;;22.79
64600;BMP280;6553;48.412;9.514;2023-06-10T04:28:36;71977.75;;;22.77
64600;BMP280;6553;48.412;9.514;2023-06-10T04:31:02;71972.19;;;22.77
64600;BMP280;6553;48.412;9.514;2023-06-10T04:33:32;71978.81;;;22.78
64600;BMP280;6553;48.412;9.514;2023-06-10T04:36:01;71972.72;;;22.77
64600;BMP280;6553;48.412;9.514;2023-06-10T04:38:29;71972.19;;;22.77
64600;BMP280;6553;48.412;9.514;2023-06-10T04:40:58;71972.31;;;22.74
64600;BMP280;6553;48.412;9.514;2023-06-10T04:43:24;71977.75;;;22.77
64600;BMP280;6553;48.412;9.514;2023-06-10T04:45:50;71976.56;;;22.78
64600;BMP280;6553;48.412;9.514;2023-06-10T04:48:16;71970.06;;;22.75
64600;BMP280;6553;48.412;9.514;2023-06-10T04:50:42;71976.69;;;22.76
64600;BMP280;6553;48.412;9.514;2023-06-10T04:53:09;71977.22;;;22.76
64600;BMP280;6553;48.412;9.514;2023-06-10T04:55:37;71973.91;;;22.76
64600;BMP280;6553;48.412;9.514;2023-06-10T04:58:03;71973.38;;;22.75
64600;BMP280;6553;48.412;9.514;2023-06-10T05:00:29;71970.06;;;22.75
64600;BMP280;6553;48.412;9.514;2023-06-10T05:02:54;71972.84;;;22.75
64600;BMP280;6553;48.412;9.514;2023-06-10T05:05:21;71970.06;;;22.75
64600;BMP280;6553;48.412;9.514;2023-06-10T05:07:48;71976.69;;;22.76
64600;BMP280;6553;48.412;9.514;2023-06-10T05:10:13;71973.91;;;22.76
64600;BMP280;6553;48.412;9.514;2023-06-10T05:12:40;71973.91;;;22.76
64600;BMP280;6553;48.412;9.514;2023-06-10T05:15:08;71970.59;;;22.75
64600;BMP280;6553;48.412;9.514;2023-06-10T05:17:34;71970.06;;;22.75
64600;BMP280;6553;48.412;9.514;2023-06-10T05:20:03;71974.56;;;22.74
64600;BMP280;6553;48.412;9.514;2023-06-10T05:22:29;71968.47;;;22.73
64600;BMP280;6553;48.412;9.514;2023-06-10T05:24:55;71967.91;;;22.73
64600;BMP280;6553;48.412;9.514;2023-06-10T05:27:21;71972.31;;;22.74
64600;BMP280;6553;48.412;9.514;2023-06-10T05:29:47;71968.47;;;22.73
64600;BMP280;6553;48.412;9.514;2023-06-10T05:32:13;71963.44;;;22.74
64600;BMP280;6553;48.412;9.514;2023-06-10T05:34:39;71974.56;;;22.74
64600;BMP280;6553;48.412;9.514;2023-06-10T05:37:05;71974.56;;;22.74
64600;BMP280;6553;48.412;9.514;2023-06-10T05:39:31;71967.91;;;22.73
64600;BMP280;6553;48.412;9.514;2023-06-10T05:41:57;71972.31;;;22.74
64600;BMP280;6553;48.412;9.514;2023-06-10T05:44:24;71968.47;;;22.73
64600;BMP280;6553;48.412;9.514;2023-06-10T05:46:51;71970.19;;;22.72
64600;BMP280;6553;48.412;9.514;2023-06-10T05:49:16;71967.41;;;22.72
64600;BMP280;6553;48.412;9.514;2023-06-10T05:51:42;71970.19;;;22.72
64600;BMP280;6553;48.412;9.514;2023-06-10T05:54:08;71970.72;;;22.73
64600;BMP280;6553;48.412;9.514;2023-06-10T05:56:34;71965.81;;;22.71
64600;BMP280;6553;48.412;9.514;2023-06-10T05:58:59;71970.19;;;22.72
64600;BMP280;6553;48.412;9.514;2023-06-10T06:01:25;71972.44;;;22.72
64600;BMP280;6553;48.412;9.514;2023-06-10T06:03:51;71977.75;;;22.77
64600;BMP280;6553;48.412;9.514;2023-06-10T06:06:16;71977.22;;;22.76
64600;BMP280;6553;48.412;9.514;2023-06-10T06:08:42;71977.59;;;22.79
64600;BMP280;6553;48.412;9.514;2023-06-10T06:11:08;71980.94;;;22.80
64600;BMP280;6553;48.412;9.514;2023-06-10T06:13:34;71973.66;;;22.81
64600;BMP280;6553;48.412;9.514;2023-06-10T06:15:59;71979.22;;;22.81
64600;BMP280;6553;48.412;9.514;2023-06-10T06:18:25;71980.28;;;22.82
64600;BMP280;6553;48.412;9.514;2023-06-10T06:20:51;71979.22;;;22.81
64600;BMP280;6553;48.412;9.514;2023-06-10T06:23:16;71976.97;;;22.81
64600;BMP280;6553;48.412;9.514;2023-06-10T06:25:42;71976.97;;;22.81
64600;BMP280;6553;48.412;9.514;2023-06-10T06:28:10;71976.97;;;22.81
64600;BMP280;6553;48.412;9.514;2023-06-10T06:30:36;71975.25;;;22.82
64600;BMP280;6553;48.412;9.514;2023-06-10T06:33:02;71983.63;;;22.82
64600;BMP280;6553;48.412;9.514;2023-06-10T06:35:30;71980.16;;;22.84
64600;BMP280;6553;48.412;9.514;2023-06-10T06:37:56;71979.09;;;22.83
64600;BMP280;6553;48.412;9.514;2023-06-10T06:40:26;71987.97;;;22.84
64600;BMP280;6553;48.412;9.514;2023-06-10T06:42:52;71982.41;;;22.84
64600;BMP280;6553;48.412;9.514;2023-06-10T06:45:43;71982.41;;;22.84
64600;BMP280;6553;48.412;9.514;2023-06-10T06:48:09;71980.69;;;22.85
64600;BMP280;6553;48.412;9.514;2023-06-10T06:50:35;71987.34;;;22.86
64600;BMP280;6553;48.412;9.514;2023-06-10T06:53:00;71988.38;;;22.87
64600;BMP280;6553;48.412;9.514;2023-06-10T06:55:26;71987.34;;;22.86
64600;BMP280;6553;48.412;9.514;2023-06-10T06:57:52;71985.59;;;22.87
64600;BMP280;6553;48.412;9.514;2023-06-10T07:00:18;71985.59;;;22.87
64600;BMP280;6553;48.412;9.514;2023-06-10T07:02:44;71983.34;;;22.87
64600;BMP280;6553;48.412;9.514;2023-06-10T07:05:10;71980.00;;;22.87
64600;BMP280;6553;48.412;9.514;2023-06-10T07:07:36;71985.06;;;22.86
64600;BMP280;6553;48.412;9.514;2023-06-10T07:10:03;71987.34;;;22.86
64600;BMP280;6553;48.412;9.514;2023-06-10T07:12:28;71984.56;;;22.86
64600;BMP280;6553;48.412;9.514;2023-06-10T07:14:56;71985.59;;;22.87
64600;BMP280;6553;48.412;9.514;2023-06-10T07:17:22;71987.84;;;22.86
64600;BMP280;6553;48.412;9.514;2023-06-10T07:19:47;71980.56;;;22.87
64600;BMP280;6553;48.412;9.514;2023-06-10T07:22:14;71986.66;;;22.88
64600;BMP280;6553;48.412;9.514;2023-06-10T07:24:40;71988.91;;;22.87
64600;BMP280;6553;48.412;9.514;2023-06-10T07:27:06;71982.81;;;22.87
64600;BMP280;6553;48.412;9.514;2023-06-10T07:29:32;71985.50;;;22.89
64600;BMP280;6553;48.412;9.514;2023-06-10T07:31:58;71984.28;;;22.91
64600;BMP280;6553;48.412;9.514;2023-06-10T07:34:24;71993.16;;;22.91
64600;BMP280;6553;48.412;9.514;2023-06-10T07:36:50;71988.13;;;22.92
64600;BMP280;6553;48.412;9.514;2023-06-10T07:39:15;71994.22;;;22.92
64600;BMP280;6553;48.412;9.514;2023-06-10T07:41:41;71989.72;;;22.93
64600;BMP280;6553;48.412;9.514;2023-06-10T07:44:07;71998.59;;;22.94
64600;BMP280;6553;48.412;9.514;2023-06-10T07:46:33;71998.59;;;22.94
64600;BMP280;6553;48.412;9.514;2023-06-10T07:48:58;71994.63;;;22.95
64600;BMP280;6553;48.412;9.514;2023-06-10T07:51:24;71997.28;;;22.98
64600;BMP280;6553;48.412;9.514;2023-06-10T07:53:50;72001.13;;;22.99
64600;BMP280;6553;48.412;9.514;2023-06-10T07:56:16;71998.34;;;22.99
64600;BMP280;6553;48.412;9.514;2023-06-10T07:58:41;72002.72;;;23.00
64600;BMP280;6553;48.412;9.514;2023-06-10T08:01:07;71998.22;;;23.01
64600;BMP280;6553;48.412;9.514;2023-06-10T08:03:34;71999.44;;;23.00
64600;BMP280;6553;48.412;9.514;2023-06-10T08:05:59;71999.44;;;23.00
64600;BMP280;6553;48.412;9.514;2023-06-10T08:08:25;72002.72;;;23.00
64600;BMP280;6553;48.412;9.514;2023-06-10T08:10:51;72003.28;;;23.01
64600;BMP280;6553;48.412;9.514;2023-06-10T08:13:17;72010.97;;;23.03
64600;BMP280;6553;48.412;9.514;2023-06-10T08:15:42;72001.94;;;23.05
64600;BMP280;6553;48.412;9.514;2023-06-10T08:18:08;72007.50;;;23.05
64600;BMP280;6553;48.412;9.514;2023-06-10T08:20:34;72009.66;;;23.07
64600;BMP280;6553;48.412;9.514;2023-06-10T08:23:00;72007.38;;;23.07
64600;BMP280;6553;48.412;9.514;2023-06-10T08:25:25;72008.56;;;23.06
64600;BMP280;6553;48.412;9.514;2023-06-10T08:27:51;72007.00;;;23.04
64600;BMP280;6553;48.412;9.514;2023-06-10T08:30:17;72005.78;;;23.06
64600;BMP280;6553;48.412;9.514;2023-06-10T08:32:43;72004.72;;;23.05
64600;BMP280;6553;48.412;9.514;2023-06-10T08:35:09;72006.72;;;23.09
64600;BMP280;6553;48.412;9.514;2023-06-10T08:37:35;72017.63;;;23.14
64600;BMP280;6553;48.412;9.514;2023-06-10T08:40:01;72009.78;;;23.15
64600;BMP280;6553;48.412;9.514;2023-06-10T08:45:17;72021.88;;;23.18
64600;BMP280;6553;48.412;9.514;2023-06-10T08:47:46;72020.69;;;23.20
64600;BMP280;6553;48.412;9.514;2023-06-10T08:50:17;72017.38;;;23.19
64600;BMP280;6553;48.412;9.514;2023-06-10T08:52:48;72017.38;;;23.19
64600;BMP280;6553;48.412;9.514;2023-06-10T08:55:23;72019.47;;;23.21
64600;BMP280;6553;48.412;9.514;2023-06-10T08:57:53;72018.97;;;23.21
64600;BMP280;6553;48.412;9.514;2023-06-10T09:00:19;72022.28;;;23.21
64600;BMP280;6553;48.412;9.514;2023-06-10T09:02:46;72023.47;;;23.20
64600;BMP280;6553;48.412;9.514;2023-06-10T09:05:13;72022.81;;;23.22
64600;BMP280;6553;48.412;9.514;2023-06-10T09:07:40;72023.34;;;23.22
64600;BMP280;6553;48.412;9.514;2023-06-10T09:10:06;72026.66;;;23.23
64600;BMP280;6553;48.412;9.514;2023-06-10T09:12:35;72024.94;;;23.24
64600;BMP280;6553;48.412;9.514;2023-06-10T09:15:04;72027.06;;;23.26
64600;BMP280;6553;48.412;9.514;2023-06-10T09:17:31;72028.78;;;23.25
64600;BMP280;6553;48.412;9.514;2023-06-10T09:19:57;72027.59;;;23.26
64600;BMP280;6553;48.412;9.514;2023-06-10T09:22:23;72026.53;;;23.25
64600;BMP280;6553;48.412;9.514;2023-06-10T09:24:49;72035.41;;;23.26
64600;BMP280;6553;48.412;9.514;2023-06-10T09:27:15;72027.72;;;23.24
64600;BMP280;6553;48.412;9.514;2023-06-10T09:29:52;72029.31;;;23.25
64600;BMP280;6553;48.412;9.514;2023-06-10T09:32:19;72028.78;;;23.25
64600;BMP280;6553;48.412;9.514;2023-06-10T09:34:46;72023.75;;;23.25
64600;BMP280;6553;48.412;9.514;2023-06-10T09:37:13;72027.19;;;23.23
64600;BMP280;6553;48.412;9.514;2023-06-10T09:39:40;72028.25;;;23.24
64600;BMP280;6553;48.412;9.514;2023-06-10T09:42:18;72031.56;;;23.25
64600;BMP280;6553;48.412;9.514;2023-06-10T09:44:51;72022.66;;;23.24
64600;BMP280;6553;48.412;9.514;2023-06-10T09:47:22;72024.28;;;23.26
64600;BMP280;6553;48.412;9.514;2023-06-10T09:49:51;72024.94;;;23.24
64600;BMP280;6553;48.412;9.514;2023-06-10T09:52:24;72023.88;;;23.23
64600;BMP280;6553;48.412;9.514;2023-06-10T09:54:51;72030.38;;;23.26
64600;BMP280;6553;48.412;9.514;2023-06-10T09:57:21;72024.28;;;23.26
64600;BMP280;6553;48.412;9.514;2023-06-10T09:59:47;72034.75;;;23.28
64600;BMP280;6553;48.412;9.514;2023-06-10T10:02:17;72032.50;;;23.28
64600;BMP280;6553;48.412;9.514;2023-06-10T10:04:44;72029.16;;;23.28
64600;BMP280;6553;48.412;9.514;2023-06-10T10:07:11;72029.16;;;23.28
64600;BMP280;6553;48.412;9.514;2023-06-10T10:09:38;72033.03;;;23.29
64600;BMP280;6553;48.412;9.514;2023-06-10T10:12:10;72033.03;;;23.29
64600;BMP280;6553;48.412;9.514;2023-06-10T10:14:38;72046.31;;;23.31
64600;BMP280;6553;48.412;9.514;2023-06-10T10:17:11;72028.00;;;23.29
64600;BMP280;6553;48.412;9.514;2023-06-10T10:19:54;72035.16;;;23.31
64600;BMP280;6553;48.412;9.514;2023-06-10T10:22:30;72029.16;;;23.28
64600;BMP280;6553;48.412;9.514;2023-06-10T10:25:03;72035.81;;;23.29
64600;BMP280;6553;48.412;9.514;2023-06-10T10:27:40;72037.81;;;23.33
64600;BMP280;6553;48.412;9.514;2023-06-10T10:30:11;72041.25;;;23.31
64600;BMP280;6553;48.412;9.514;2023-06-10T10:32:59;72035.69;;;23.31
64600;BMP280;6553;48.412;9.514;2023-06-10T10:35:27;72033.97;;;23.32
64600;BMP280;6553;48.412;9.514;2023-06-10T10:37:54;72033.97;;;23.32
64600;BMP280;6553;48.412;9.514;2023-06-10T10:40:24;72033.44;;;23.32
64600;BMP280;6553;48.412;9.514;2023-06-10T10:42:51;72035.16;;;23.31
64600;BMP280;6553;48.412;9.514;2023-06-10T10:45:18;72032.38;;;23.31
64600;BMP280;6553;48.412;9.514;2023-06-10T10:47:46;72029.59;;;23.31
64600;BMP280;6553;48.412;9.514;2023-06-10T10:50:17;72036.09;;;23.34
64600;BMP280;6553;48.412;9.514;2023-06-10T10:53:00;72039.94;;;23.35
64600;BMP280;6553;48.412;9.514;2023-06-10T10:55:28;72038.38;;;23.34
64600;BMP280;6553;48.412;9.514;2023-06-10T10:58:05;72035.69;;;23.31
64600;BMP280;6553;48.412;9.514;2023-06-10T11:00:43;72041.78;;;23.32
64600;BMP280;6553;48.412;9.514;2023-06-10T11:03:16;72034.91;;;23.36
64600;BMP280;6553;48.412;9.514;2023-06-10T11:05:48;72035.56;;;23.34
64600;BMP280;6553;48.412;9.514;2023-06-10T11:10:57;72038.22;;;23.36
64600;BMP280;6553;48.412;9.514;2023-06-10T11:13:26;72035.97;;;23.37
64600;BMP280;6553;48.412;9.514;2023-06-10T11:15:57;72038.75;;;23.37
64600;BMP280;6553;48.412;9.514;2023-06-10T11:18:29;72036.09;;;23.34
64600;BMP280;6553;48.412;9.514;2023-06-10T11:21:06;72041.00;;;23.36
64600;BMP280;6553;48.412;9.514;2023-06-10T11:23:32;72041.41;;;23.39
64600;BMP280;6553;48.412;9.514;2023-06-10T11:31:25;72042.47;;;23.40
64600;BMP280;6553;48.412;9.514;2023-06-10T11:36:21;72045.81;;;23.41
64600;BMP280;6553;48.412;9.514;2023-06-10T11:38:47;72047.38;;;23.42
64600;BMP280;6553;48.412;9.514;2023-06-10T11:41:17;72041.94;;;23.40
64600;BMP280;6553;48.412;9.514;2023-06-10T11:43:47;72040.22;;;23.41
64600;BMP280;6553;48.412;9.514;2023-06-10T11:46:14;72042.47;;;23.40
64600;BMP280;6553;48.412;9.514;2023-06-10T11:48:51;72044.59;;;23.42
64600;BMP280;6553;48.412;9.514;2023-06-10T11:51:17;72046.19;;;23.44
64600;BMP280;6553;48.412;9.514;2023-06-10T11:53:49;72048.31;;;23.46
64600;BMP280;6553;48.412;9.514;2023-06-10T11:56:26;72053.88;;;23.46
64600;BMP280;6553;48.412;9.514;2023-06-10T11:59:07;72046.75;;;23.44
64600;BMP280;6553;48.412;9.514;2023-06-10T12:01:35;72046.19;;;23.44
64600;BMP280;6553;48.412;9.514;2023-06-10T12:04:11;72048.31;;;23.46
64600;BMP280;6553;48.412;9.514;2023-06-10T12:06:46;72052.31;;;23.44
64600;BMP280;6553;48.412;9.514;2023-06-10T12:09:29;72052.16;;;23.47
64600;BMP280;6553;48.412;9.514;2023-06-10T12:12:02;72050.06;;;23.45
64600;BMP280;6553;48.412;9.514;2023-06-10T12:14:59;72046.19;;;23.44
64600;BMP280;6553;48.412;9.514;2023-06-10T12:20:09;72051.09;;;23.46
64600;BMP280;6553;48.412;9.514;2023-06-10T12:22:49;72047.28;;;23.45
64600;BMP280;6553;48.412;9.514;2023-06-10T12:25:15;72043.41;;;23.44
64600;BMP280;6553;48.412;9.514;2023-06-10T12:27:56;72047.78;;;23.45
64600;BMP280;6553;48.412;9.514;2023-06-10T12:30:25;72050.06;;;23.45
64600;BMP280;6553;48.412;9.514;2023-06-10T12:32:52;72055.50;;;23.47
64600;BMP280;6553;48.412;9.514;2023-06-10T12:35:26;72057.06;;;23.49
64600;BMP280;6553;48.412;9.514;2023-06-10T12:38:04;72054.41;;;23.46
64600;BMP280;6553;48.412;9.514;2023-06-10T12:40:38;72051.63;;;23.46
64600;BMP280;6553;48.412;9.514;2023-06-10T12:43:06;72049.94;;;23.47
64600;BMP280;6553;48.412;9.514;2023-06-10T12:45:35;72053.25;;;23.48
64600;BMP280;6553;48.412;9.514;2023-06-10T12:48:19;72054.28;;;23.49
64600;BMP280;6553;48.412;9.514;2023-06-10T12:50:55;72058.00;;;23.52
64600;BMP280;6553;48.412;9.514;2023-06-10T12:53:22;72062.53;;;23.51
64600;BMP280;6553;48.412;9.514;2023-06-10T12:55:50;72056.97;;;23.51
64600;BMP280;6553;48.412;9.514;2023-06-10T12:58:16;72058.00;;;23.52
64600;BMP280;6553;48.412;9.514;2023-06-10T13:00:42;72052.44;;;23.52
64600;BMP280;6553;48.412;9.514;2023-06-10T13:03:09;72053.78;;;23.48
64600;BMP280;6553;48.412;9.514;2023-06-10T13:05:36;72050.47;;;23.48
64600;BMP280;6553;48.412;9.514;2023-06-10T13:08:05;72052.16;;;23.47
64600;BMP280;6553;48.412;9.514;2023-06-10T13:10:33;72051.50;;;23.49
64600;BMP280;6553;48.412;9.514;2023-06-10T13:13:00;72057.59;;;23.49
64600;BMP280;6553;48.412;9.514;2023-06-10T13:15:27;72048.72;;;23.49
64600;BMP280;6553;48.412;9.514;2023-06-10T13:17:53;72048.72;;;23.49
64600;BMP280;6553;48.412;9.514;2023-06-10T13:20:19;72058.16;;;23.50
64600;BMP280;6553;48.412;9.514;2023-06-10T13:22:46;72052.56;;;23.50
64600;BMP280;6553;48.412;9.514;2023-06-10T13:25:13;72050.84;;;23.51
64600;BMP280;6553;48.412;9.514;2023-06-10T13:27:38;72059.06;;;23.53
64600;BMP280;6553;48.412;9.514;2023-06-10T13:30:10;72057.50;;;23.52
64600;BMP280;6553;48.412;9.514;2023-06-10T13:32:36;72054.72;;;23.52
64600;BMP280;6553;48.412;9.514;2023-06-10T13:35:03;72058.53;;;23.53
64600;BMP280;6553;48.412;9.514;2023-06-10T13:37:29;72061.22;;;23.55
64600;BMP280;6553;48.412;9.514;2023-06-10T13:39:55;72063.47;;;23.55
64600;BMP280;6553;48.412;9.514;2023-06-10T13:42:21;72060.69;;;23.55
64600;BMP280;6553;48.412;9.514;2023-06-10T13:44:47;72060.00;;;23.57
64600;BMP280;6553;48.412;9.514;2023-06-10T13:47:14;72061.72;;;23.56
64600;BMP280;6553;48.412;9.514;2023-06-10T13:52:07;72061.88;;;23.53
64600;BMP280;6553;48.412;9.514;2023-06-10T13:54:33;72058.00;;;23.52
64600;BMP280;6553;48.412;9.514;2023-06-10T13:57:02;72054.72;;;23.52
64600;BMP280;6553;48.412;9.514;2023-06-10T13:59:27;72052.03;;;23.49
64600;BMP280;6553;48.412;9.514;2023-06-10T14:01:53;72060.94;;;23.50
64600;BMP280;6553;48.412;9.514;2023-06-10T14:04:19;72053.66;;;23.51
64600;BMP280;6553;48.412;9.514;2023-06-10T14:06:45;72059.75;;;23.51
64600;BMP280;6553;48.412;9.514;2023-06-10T14:09:13;72052.03;;;23.49
64600;BMP280;6553;48.412;9.514;2023-06-10T14:11:38;72059.84;;;23.49
64600;BMP280;6553;48.412;9.514;2023-06-10T14:14:04;72060.28;;;23.52
64600;BMP280;6553;48.412;9.514;2023-06-10T14:16:30;72056.44;;;23.51
64600;BMP280;6553;48.412;9.514;2023-06-10T14:18:55;72051.94;;;23.52
64600;BMP280;6553;48.412;9.514;2023-06-10T14:21:21;72058.00;;;23.52
64600;BMP280;6553;48.412;9.514;2023-06-10T14:23:47;72058.53;;;23.53
64600;BMP280;6553;48.412;9.514;2023-06-10T14:26:15;72061.88;;;23.53
64600;BMP280;6553;48.412;9.514;2023-06-10T14:28:40;72058.53;;;23.53
64600;BMP280;6553;48.412;9.514;2023-06-10T14:31:06;72061.22;;;23.55
64600;BMP280;6553;48.412;9.514;2023-06-10T14:33:33;72060.69;;;23.55
64600;BMP280;6553;48.412;9.514;2023-06-10T14:35:59;72058.44;;;23.55
64600;BMP280;6553;48.412;9.514;2023-06-10T14:38:25;72055.75;;;23.53
64600;BMP280;6553;48.412;9.514;2023-06-10T14:40:51;72058.53;;;23.53
64600;BMP280;6553;48.412;9.514;2023-06-10T14:43:18;72058.00;;;23.52
64600;BMP280;6553;48.412;9.514;2023-06-10T14:45:43;72060.69;;;23.55
64600;BMP280;6553;48.412;9.514;2023-06-10T14:48:11;72062.25;;;23.56